sensor_id;sensor_type;location;lat;lon;timestamp;pressure;altitude;pressure_sealevel;temperature;humidity
65997;BME280;52765;52.258;21.052;2024-03-02T00:00:55;100372.09;;;7.91;100.00
65997;BME280;52765;52.258;21.052;2024-03-02T00:04:56;100376.44;;;7.83;100.00
65997;BME280;52765;52.258;21.052;2024-03-02T00:08:58;100373.75;;;7.83;100.00
65997;BME280;52765;52.258;21.052;2024-03-02T00:12:59;100364.84;;;7.72;100.00
65997;BME280;52765;52.258;21.052;2024-03-02T00:16:59;100363.44;;;7.68;100.00
65997;BME280;52765;52.258;21.052;2024-03-02T00:21:00;100365.69;;;7.63;100.00
65997;BME280;52765;52.258;21.052;2024-03-02T00:25:03;100358.63;;;7.62;100.00
65997;BME280;52765;52.258;21.052;2024-03-02T00:29:04;100356.06;;;7.60;100.00
65997;BME280;52765;52.258;21.052;2024-03-02T00:33:07;100355.94;;;7.62;100.00
65997;BME280;52765;52.258;21.052;2024-03-02T00:37:08;100355.19;;;7.50;100.00
65997;BME280;52765;52.258;21.052;2024-03-02T00:41:15;100358.84;;;7.49;100.00
65997;BME280;52765;52.258;21.052;2024-03-02T00:45:17;100349.28;;;7.47;100.00
65997;BME280;52765;52.258;21.052;2024-03-02T00:49:22;100349.00;;;7.50;100.00
65997;BME280;52765;52.258;21.052;2024-03-02T00:53:25;100352.22;;;7.44;100.00
65997;BME280;52765;52.258;21.052;2024-03-02T00:57:29;100365.88;;;7.40;100.00
65997;BME280;52765;52.258;21.052;2024-03-02T01:01:36;100355.44;;;7.37;100.00
65997;BME280;52765;52.258;21.052;2024-03-02T01:05:41;100350.81;;;7.39;100.00
65997;BME280;52765;52.258;21.052;2024-03-02T01:09:42;100352.63;;;7.39;100.00
65997;BME280;52765;52.258;21.052;2024-03-02T01:13:42;100351.22;;;7.35;100.00
65997;BME280;52765;52.258;21.052;2024-03-02T01:17:43;100353.31;;;7.31;100.00
65997;BME280;52765;52.258;21.052;2024-03-02T01:21:43;100338.34;;;7.29;100.00
65997;BME280;52765;52.258;21.052;2024-03-02T01:25:44;100344.38;;;7.21;100.00
65997;BME280;52765;52.258;21.052;2024-03-02T01:29:44;100336.75;;;7.16;100.00
65997;BME280;52765;52.258;21.052;2024-03-02T01:33:45;100325.31;;;7.14;100.00
65997;BME280;52765;52.258;21.052;2024-03-02T01:37:45;100332.50;;;7.14;100.00
65997;BME280;52765;52.258;21.052;2024-03-02T01:41:46;100328.28;;;7.11;100.00
65997;BME280;52765;52.258;21.052;2024-03-02T01:45:46;100320.78;;;7.05;100.00
65997;BME280;52765;52.258;21.052;2024-03-02T01:49:47;100328.81;;;7.05;100.00
65997;BME280;52765;52.258;21.052;2024-03-02T01:53:47;100331.19;;;6.98;100.00
65997;BME280;52765;52.258;21.052;2024-03-02T01:57:49;100332.88;;;6.99;100.00
65997;BME280;52765;52.258;21.052;2024-03-02T02:01:51;100331.19;;;6.98;100.00
65997;BME280;52765;52.258;21.052;2024-03-02T02:05:51;100322.44;;;6.96;100.00
65997;BME280;52765;52.258;21.052;2024-03-02T02:09:52;100325.97;;;6.97;100.00
65997;BME280;52765;52.258;21.052;2024-03-02T02:13:52;100326.09;;;6.95;100.00
65997;BME280;52765;52.258;21.052;2024-03-02T02:17:57;100315.34;;;6.85;100.00
65997;BME280;52765;52.258;21.052;2024-03-02T02:21:58;100322.97;;;6.90;100.00
65997;BME280;52765;52.258;21.052;2024-03-02T02:25:59;100312.38;;;6.89;100.00
65997;BME280;52765;52.258;21.052;2024-03-02T02:29:59;100313.91;;;6.81;100.00
65997;BME280;52765;52.258;21.052;2024-03-02T02:34:01;100311.38;;;6.80;100.00
65997;BME280;52765;52.258;21.052;2024-03-02T02:38:02;100305.44;;;6.76;100.00
65997;BME280;52765;52.258;21.052;2024-03-02T02:42:03;100306.97;;;6.79;100.00
65997;BME280;52765;52.258;21.052;2024-03-02T02:46:04;100308.25;;;6.75;100.00
65997;BME280;52765;52.258;21.052;2024-03-02T02:50:07;100308.13;;;6.76;100.00
65997;BME280;52765;52.258;21.052;2024-03-02T02:54:07;100309.22;;;6.74;100.00
65997;BME280;52765;52.258;21.052;2024-03-02T02:58:08;100295.13;;;6.72;100.00
65997;BME280;52765;52.258;21.052;2024-03-02T03:02:08;100296.97;;;6.71;100.00
65997;BME280;52765;52.258;21.052;2024-03-02T03:06:08;100297.75;;;6.62;100.00
65997;BME280;52765;52.258;21.052;2024-03-02T03:10:09;100293.66;;;6.58;100.00
65997;BME280;52765;52.258;21.052;2024-03-02T03:14:10;100290.69;;;6.61;100.00
65997;BME280;52765;52.258;21.052;2024-03-02T03:18:10;100290.25;;;6.56;100.00
65997;BME280;52765;52.258;21.052;2024-03-02T03:22:11;100288.69;;;6.53;100.00
65997;BME280;52765;52.258;21.052;2024-03-02T03:26:14;100278.94;;;6.52;100.00
65997;BME280;52765;52.258;21.052;2024-03-02T03:30:15;100286.16;;;6.52;100.00
65997;BME280;52765;52.258;21.052;2024-03-02T03:34:15;100283.34;;;6.53;100.00
65997;BME280;52765;52.258;21.052;2024-03-02T03:38:16;100284.31;;;6.52;100.00
65997;BME280;52765;52.258;21.052;2024-03-02T03:42:16;100296.97;;;6.50;100.00
65997;BME280;52765;52.258;21.052;2024-03-02T03:46:17;100294.69;;;6.45;100.00
65997;BME280;52765;52.258;21.052;2024-03-02T03:50:17;100294.81;;;6.44;100.00
65997;BME280;52765;52.258;21.052;2024-03-02T03:54:18;100289.84;;;6.39;100.00
65997;BME280;52765;52.258;21.052;2024-03-02T03:58:21;100283.28;;;6.43;100.00
65997;BME280;52765;52.258;21.052;2024-03-02T04:02:22;100285.50;;;6.38;100.00
65997;BME280;52765;52.258;21.052;2024-03-02T04:06:27;100270.28;;;6.39;100.00
65997;BME280;52765;52.258;21.052;2024-03-02T04:10:28;100290.41;;;6.33;100.00
65997;BME280;52765;52.258;21.052;2024-03-02T04:14:30;100287.97;;;6.30;100.00
65997;BME280;52765;52.258;21.052;2024-03-02T04:18:31;100286.53;;;6.26;100.00
65997;BME280;52765;52.258;21.052;2024-03-02T04:22:33;100299.91;;;6.26;100.00
65997;BME280;52765;52.258;21.052;2024-03-02T04:26:34;100295.00;;;6.31;100.00
65997;BME280;52765;52.258;21.052;2024-03-02T04:30:36;100305.31;;;6.36;100.00
65997;BME280;52765;52.258;21.052;2024-03-02T04:34:36;100302.78;;;6.34;100.00
65997;BME280;52765;52.258;21.052;2024-03-02T04:38:38;100292.94;;;6.35;100.00
65997;BME280;52765;52.258;21.052;2024-03-02T04:42:38;100290.66;;;6.30;100.00
65997;BME280;52765;52.258;21.052;2024-03-02T04:46:39;100291.50;;;6.30;100.00
65997;BME280;52765;52.258;21.052;2024-03-02T04:50:39;100288.94;;;6.29;100.00
65997;BME280;52765;52.258;21.052;2024-03-02T04:54:40;100279.97;;;6.30;100.00
65997;BME280;52765;52.258;21.052;2024-03-02T04:58:59;100286.16;;;6.30;100.00
65997;BME280;52765;52.258;21.052;2024-03-02T05:03:00;100288.25;;;6.27;100.00
65997;BME280;52765;52.258;21.052;2024-03-02T05:07:01;100280.09;;;6.28;100.00
65997;BME280;52765;52.258;21.052;2024-03-02T05:11:05;100293.34;;;6.30;100.00
65997;BME280;52765;52.258;21.052;2024-03-02T05:15:24;100305.47;;;6.34;100.00
65997;BME280;52765;52.258;21.052;2024-03-02T05:19:24;100313.94;;;6.39;100.00
65997;BME280;52765;52.258;21.052;2024-03-02T05:23:25;100304.38;;;6.37;100.00
65997;BME280;52765;52.258;21.052;2024-03-02T05:27:26;100312.97;;;6.40;100.00
65997;BME280;52765;52.258;21.052;2024-03-02T05:31:27;100325.38;;;6.41;100.00
65997;BME280;52765;52.258;21.052;2024-03-02T05:35:27;100323.28;;;6.45;100.00
65997;BME280;52765;52.258;21.052;2024-03-02T05:39:28;100325.09;;;6.44;100.00
65997;BME280;52765;52.258;21.052;2024-03-02T05:43:28;100314.94;;;6.38;100.00
65997;BME280;52765;52.258;21.052;2024-03-02T05:47:29;100327.66;;;6.46;100.00
65997;BME280;52765;52.258;21.052;2024-03-02T05:51:29;100335.16;;;6.52;100.00
65997;BME280;52765;52.258;21.052;2024-03-02T05:55:30;100333.94;;;6.56;100.00
65997;BME280;52765;52.258;21.052;2024-03-02T05:59:31;100337.91;;;6.62;100.00
65997;BME280;52765;52.258;21.052;2024-03-02T06:03:31;100336.06;;;6.62;100.00
65997;BME280;52765;52.258;21.052;2024-03-02T06:07:32;100335.81;;;6.65;100.00
65997;BME280;52765;52.258;21.052;2024-03-02T06:11:36;100352.91;;;6.74;100.00
65997;BME280;52765;52.258;21.052;2024-03-02T06:16:11;100347.84;;;6.81;100.00
65997;BME280;52765;52.258;21.052;2024-03-02T06:20:11;100353.34;;;6.79;100.00
65997;BME280;52765;52.258;21.052;2024-03-02T06:24:12;100352.13;;;6.83;100.00
65997;BME280;52765;52.258;21.052;2024-03-02T06:28:12;100355.38;;;6.87;100.00
65997;BME280;52765;52.258;21.052;2024-03-02T06:32:15;100352.16;;;6.93;100.00
65997;BME280;52765;52.258;21.052;2024-03-02T06:36:16;100355.44;;;6.97;100.00
65997;BME280;52765;52.258;21.052;2024-03-02T06:40:17;100368.47;;;7.11;100.00
65997;BME280;52765;52.258;21.052;2024-03-02T06:44:17;100369.31;;;7.12;100.00
65997;BME280;52765;52.258;21.052;2024-03-02T06:48:18;100368.19;;;7.14;100.00
65997;BME280;52765;52.258;21.052;2024-03-02T06:52:20;100364.72;;;7.23;100.00
65997;BME280;52765;52.258;21.052;2024-03-02T06:56:21;100372.66;;;7.35;100.00
65997;BME280;52765;52.258;21.052;2024-03-02T07:00:21;100379.69;;;7.36;100.00
65997;BME280;52765;52.258;21.052;2024-03-02T07:04:22;100370.53;;;7.38;100.00
65997;BME280;52765;52.258;21.052;2024-03-02T07:08:22;100367.59;;;7.41;100.00
65997;BME280;52765;52.258;21.052;2024-03-02T07:12:23;100371.28;;;7.50;100.00
65997;BME280;52765;52.258;21.052;2024-03-02T07:16:23;100377.09;;;7.55;100.00
65997;BME280;52765;52.258;21.052;2024-03-02T07:20:33;100369.34;;;7.62;100.00
65997;BME280;52765;52.258;21.052;2024-03-02T07:24:42;100373.03;;;7.61;100.00
65997;BME280;52765;52.258;21.052;2024-03-02T07:28:43;100377.50;;;7.60;100.00
65997;BME280;52765;52.258;21.052;2024-03-02T07:32:44;100376.41;;;7.63;100.00
65997;BME280;52765;52.258;21.052;2024-03-02T07:36:45;100382.63;;;7.73;100.00
65997;BME280;52765;52.258;21.052;2024-03-02T07:40:46;100382.09;;;7.80;100.00
65997;BME280;52765;52.258;21.052;2024-03-02T07:44:47;100376.59;;;7.81;100.00
65997;BME280;52765;52.258;21.052;2024-03-02T07:48:47;100373.50;;;7.95;100.00
65997;BME280;52765;52.258;21.052;2024-03-02T07:52:48;100380.16;;;8.01;100.00
65997;BME280;52765;52.258;21.052;2024-03-02T07:56:48;100380.13;;;8.11;100.00
65997;BME280;52765;52.258;21.052;2024-03-02T08:00:49;100382.25;;;8.17;100.00
65997;BME280;52765;52.258;21.052;2024-03-02T08:04:50;100379.03;;;8.23;100.00
65997;BME280;52765;52.258;21.052;2024-03-02T08:08:50;100395.28;;;8.31;100.00
65997;BME280;52765;52.258;21.052;2024-03-02T08:13:01;100401.75;;;8.39;100.00
65997;BME280;52765;52.258;21.052;2024-03-02T08:17:03;100403.09;;;8.44;100.00
65997;BME280;52765;52.258;21.052;2024-03-02T08:21:09;100408.47;;;8.44;100.00
65997;BME280;52765;52.258;21.052;2024-03-02T08:25:10;100386.09;;;8.54;100.00
65997;BME280;52765;52.258;21.052;2024-03-02T08:29:11;100389.22;;;8.49;100.00
65997;BME280;52765;52.258;21.052;2024-03-02T08:33:12;100394.59;;;8.49;100.00
65997;BME280;52765;52.258;21.052;2024-03-02T08:37:49;100396.84;;;8.54;100.00
65997;BME280;52765;52.258;21.052;2024-03-02T08:42:06;100391.63;;;8.52;100.00
65997;BME280;52765;52.258;21.052;2024-03-02T08:46:07;100413.66;;;8.46;100.00
65997;BME280;52765;52.258;21.052;2024-03-02T09:01:58;100410.41;;;8.52;100.00
65997;BME280;52765;52.258;21.052;2024-03-02T09:05:59;100407.16;;;8.68;100.00
65997;BME280;52765;52.258;21.052;2024-03-02T09:10:00;100411.66;;;8.77;100.00
65997;BME280;52765;52.258;21.052;2024-03-02T09:14:00;100411.94;;;8.84;100.00
65997;BME280;52765;52.258;21.052;2024-03-02T09:18:01;100412.22;;;8.81;100.00
65997;BME280;52765;52.258;21.052;2024-03-02T09:22:01;100409.97;;;8.86;100.00
65997;BME280;52765;52.258;21.052;2024-03-02T09:26:03;100412.66;;;8.86;100.00
65997;BME280;52765;52.258;21.052;2024-03-02T09:30:13;100417.69;;;8.99;100.00
65997;BME280;52765;52.258;21.052;2024-03-02T09:34:14;100417.53;;;9.10;100.00
65997;BME280;52765;52.258;21.052;2024-03-02T09:38:15;100417.50;;;9.20;100.00
65997;BME280;52765;52.258;21.052;2024-03-02T09:42:16;100411.41;;;9.28;100.00
65997;BME280;52765;52.258;21.052;2024-03-02T09:46:18;100413.66;;;9.22;99.98
65997;BME280;52765;52.258;21.052;2024-03-02T09:50:19;100410.53;;;9.27;100.00
65997;BME280;52765;52.258;21.052;2024-03-02T09:54:20;100405.69;;;9.40;99.63
65997;BME280;52765;52.258;21.052;2024-03-02T09:58:21;100401.50;;;9.56;99.45
65997;BME280;52765;52.258;21.052;2024-03-02T10:02:24;100403.81;;;9.78;98.24
65997;BME280;52765;52.258;21.052;2024-03-02T10:06:26;100398.50;;;9.87;96.73
65997;BME280;52765;52.258;21.052;2024-03-02T10:10:37;100394.06;;;9.95;96.85
65997;BME280;52765;52.258;21.052;2024-03-02T10:14:40;100388.78;;;10.22;96.12
65997;BME280;52765;52.258;21.052;2024-03-02T10:18:41;100386.50;;;10.45;93.69
65997;BME280;52765;52.258;21.052;2024-03-02T10:22:42;100384.78;;;10.62;93.17
65997;BME280;52765;52.258;21.052;2024-03-02T10:26:42;100380.38;;;10.61;92.76
65997;BME280;52765;52.258;21.052;2024-03-02T10:30:43;100378.88;;;10.58;92.36
65997;BME280;52765;52.258;21.052;2024-03-02T10:34:47;100374.69;;;10.64;92.22
65997;BME280;52765;52.258;21.052;2024-03-02T10:38:49;100382.94;;;10.62;92.01
65997;BME280;52765;52.258;21.052;2024-03-02T10:42:50;100373.53;;;10.66;91.96
65997;BME280;52765;52.258;21.052;2024-03-02T10:46:54;100371.56;;;10.95;91.42
65997;BME280;52765;52.258;21.052;2024-03-02T10:50:55;100367.66;;;11.23;89.91
65997;BME280;52765;52.258;21.052;2024-03-02T10:54:59;100384.13;;;11.46;88.71
65997;BME280;52765;52.258;21.052;2024-03-02T10:59:03;100370.53;;;11.64;88.46
65997;BME280;52765;52.258;21.052;2024-03-02T11:03:07;100366.34;;;11.70;87.12
65997;BME280;52765;52.258;21.052;2024-03-02T11:07:12;100366.19;;;11.80;85.12
65997;BME280;52765;52.258;21.052;2024-03-02T11:11:15;100366.16;;;11.72;86.29
65997;BME280;52765;52.258;21.052;2024-03-02T11:15:20;100362.06;;;11.51;87.56
65997;BME280;52765;52.258;21.052;2024-03-02T11:19:21;100356.16;;;11.47;87.02
65997;BME280;52765;52.258;21.052;2024-03-02T11:23:32;100367.47;;;11.51;88.60
65997;BME280;52765;52.258;21.052;2024-03-02T11:31:58;100359.06;;;11.71;87.21
65997;BME280;52765;52.258;21.052;2024-03-02T11:36:02;100358.94;;;11.80;86.40
65997;BME280;52765;52.258;21.052;2024-03-02T11:40:04;100361.19;;;11.93;85.23
65997;BME280;52765;52.258;21.052;2024-03-02T11:44:04;100355.31;;;11.98;85.19
65997;BME280;52765;52.258;21.052;2024-03-02T11:48:06;100346.38;;;11.97;85.02
65997;BME280;52765;52.258;21.052;2024-03-02T11:52:09;100338.28;;;11.97;84.86
65997;BME280;52765;52.258;21.052;2024-03-02T11:56:13;100328.97;;;12.00;84.97
65997;BME280;52765;52.258;21.052;2024-03-02T12:00:21;100327.13;;;12.09;84.94
65997;BME280;52765;52.258;21.052;2024-03-02T12:04:22;100329.50;;;12.12;84.87
65997;BME280;52765;52.258;21.052;2024-03-02T12:08:23;100326.28;;;12.08;84.04
65997;BME280;52765;52.258;21.052;2024-03-02T12:12:24;100321.56;;;12.02;85.09
65997;BME280;52765;52.258;21.052;2024-03-02T12:16:26;100326.31;;;12.16;84.67
65997;BME280;52765;52.258;21.052;2024-03-02T12:20:29;100325.28;;;12.26;83.45
65997;BME280;52765;52.258;21.052;2024-03-02T12:24:30;100337.13;;;12.41;83.44
65997;BME280;52765;52.258;21.052;2024-03-02T12:28:30;100333.56;;;12.57;81.07
65997;BME280;52765;52.258;21.052;2024-03-02T12:32:31;100332.88;;;12.63;81.07
65997;BME280;52765;52.258;21.052;2024-03-02T12:36:37;100342.13;;;12.77;80.36
65997;BME280;52765;52.258;21.052;2024-03-02T12:40:38;100341.97;;;12.78;79.90
65997;BME280;52765;52.258;21.052;2024-03-02T12:44:39;100332.69;;;12.73;79.06
65997;BME280;52765;52.258;21.052;2024-03-02T12:48:40;100334.59;;;12.56;80.64
65997;BME280;52765;52.258;21.052;2024-03-02T12:52:41;100342.19;;;12.52;80.88
65997;BME280;52765;52.258;21.052;2024-03-02T12:56:41;100339.66;;;12.51;80.44
65997;BME280;52765;52.258;21.052;2024-03-02T13:00:45;100334.59;;;12.48;81.94
65997;BME280;52765;52.258;21.052;2024-03-02T13:04:54;100335.59;;;12.38;80.87
65997;BME280;52765;52.258;21.052;2024-03-02T13:08:55;100337.44;;;12.30;82.06
65997;BME280;52765;52.258;21.052;2024-03-02T13:12:56;100336.94;;;12.26;83.44
65997;BME280;52765;52.258;21.052;2024-03-02T13:16:57;100335.41;;;12.15;83.86
65997;BME280;52765;52.258;21.052;2024-03-02T13:20:58;100339.47;;;12.11;84.84
65997;BME280;52765;52.258;21.052;2024-03-02T13:24:58;100339.47;;;12.19;84.26
65997;BME280;52765;52.258;21.052;2024-03-02T13:29:01;100331.03;;;12.14;84.02
65997;BME280;52765;52.258;21.052;2024-03-02T13:33:05;100337.25;;;12.07;84.77
65997;BME280;52765;52.258;21.052;2024-03-02T13:37:05;100318.69;;;11.95;84.57
65997;BME280;52765;52.258;21.052;2024-03-02T13:41:06;100337.91;;;11.92;85.18
65997;BME280;52765;52.258;21.052;2024-03-02T13:45:07;100336.38;;;11.90;86.12
65997;BME280;52765;52.258;21.052;2024-03-02T13:49:07;100338.38;;;11.79;87.43
65997;BME280;52765;52.258;21.052;2024-03-02T13:53:08;100344.06;;;11.68;87.44
65997;BME280;52765;52.258;21.052;2024-03-02T13:57:12;100343.88;;;11.61;88.38
65997;BME280;52765;52.258;21.052;2024-03-02T14:01:12;100337.41;;;11.38;88.94
65997;BME280;52765;52.258;21.052;2024-03-02T14:05:13;100331.09;;;11.21;89.65
65997;BME280;52765;52.258;21.052;2024-03-02T14:09:14;100345.88;;;11.17;90.13
65997;BME280;52765;52.258;21.052;2024-03-02T14:13:18;100343.16;;;11.08;91.17
65997;BME280;52765;52.258;21.052;2024-03-02T14:17:20;100346.47;;;11.02;90.89
65997;BME280;52765;52.258;21.052;2024-03-02T14:21:23;100352.69;;;10.95;91.42
65997;BME280;52765;52.258;21.052;2024-03-02T14:25:23;100346.22;;;10.87;91.76
65997;BME280;52765;52.258;21.052;2024-03-02T14:29:27;100343.50;;;10.79;91.90
65997;BME280;52765;52.258;21.052;2024-03-02T14:33:28;100339.97;;;10.61;92.86
65997;BME280;52765;52.258;21.052;2024-03-02T14:37:29;100347.22;;;10.60;93.31
65997;BME280;52765;52.258;21.052;2024-03-02T14:41:30;100355.47;;;10.59;93.43
65997;BME280;52765;52.258;21.052;2024-03-02T14:45:33;100351.41;;;10.54;93.91
65997;BME280;52765;52.258;21.052;2024-03-02T14:49:34;100352.47;;;10.44;93.99
65997;BME280;52765;52.258;21.052;2024-03-02T14:53:38;100350.25;;;10.39;94.27
65997;BME280;52765;52.258;21.052;2024-03-02T14:57:39;100350.94;;;10.23;94.92
65997;BME280;52765;52.258;21.052;2024-03-02T15:01:40;100353.63;;;10.23;94.45
65997;BME280;52765;52.258;21.052;2024-03-02T15:05:41;100345.31;;;10.16;95.32
65997;BME280;52765;52.258;21.052;2024-03-02T15:09:43;100346.31;;;10.15;95.97
65997;BME280;52765;52.258;21.052;2024-03-02T15:13:48;100344.50;;;10.16;96.17
65997;BME280;52765;52.258;21.052;2024-03-02T15:17:49;100344.41;;;10.08;96.71
65997;BME280;52765;52.258;21.052;2024-03-02T15:21:50;100349.66;;;10.09;96.88
65997;BME280;52765;52.258;21.052;2024-03-02T15:25:53;100347.25;;;10.06;96.92
65997;BME280;52765;52.258;21.052;2024-03-02T15:29:54;100343.09;;;9.94;97.18
65997;BME280;52765;52.258;21.052;2024-03-02T15:33:57;100345.16;;;9.82;97.97
65997;BME280;52765;52.258;21.052;2024-03-02T15:37:59;100345.16;;;9.82;98.44
65997;BME280;52765;52.258;21.052;2024-03-02T15:42:00;100344.06;;;9.75;98.65
65997;BME280;52765;52.258;21.052;2024-03-02T15:46:02;100351.31;;;9.74;99.24
65997;BME280;52765;52.258;21.052;2024-03-02T15:50:03;100352.06;;;9.67;99.55
65997;BME280;52765;52.258;21.052;2024-03-02T15:54:04;100360.56;;;9.62;99.77
65997;BME280;52765;52.258;21.052;2024-03-02T15:58:06;100357.09;;;9.52;99.76
65997;BME280;52765;52.258;21.052;2024-03-02T16:02:06;100350.34;;;9.48;100.00
65997;BME280;52765;52.258;21.052;2024-03-02T16:06:07;100353.16;;;9.46;100.00
65997;BME280;52765;52.258;21.052;2024-03-02T16:10:08;100370.72;;;9.40;100.00
65997;BME280;52765;52.258;21.052;2024-03-02T16:14:09;100361.81;;;9.40;100.00
65997;BME280;52765;52.258;21.052;2024-03-02T16:18:10;100367.78;;;9.34;100.00
65997;BME280;52765;52.258;21.052;2024-03-02T16:22:14;100355.81;;;9.28;100.00
65997;BME280;52765;52.258;21.052;2024-03-02T16:26:14;100367.56;;;9.17;100.00
65997;BME280;52765;52.258;21.052;2024-03-02T16:30:15;100370.00;;;9.11;100.00
65997;BME280;52765;52.258;21.052;2024-03-02T16:34:28;100379.91;;;9.10;100.00
65997;BME280;52765;52.258;21.052;2024-03-02T16:38:29;100370.19;;;8.99;100.00
65997;BME280;52765;52.258;21.052;2024-03-02T16:42:30;100368.94;;;8.94;100.00
65997;BME280;52765;52.258;21.052;2024-03-02T16:46:31;100377.69;;;8.96;100.00
65997;BME280;52765;52.258;21.052;2024-03-02T16:50:32;100372.31;;;8.96;100.00
65997;BME280;52765;52.258;21.052;2024-03-02T16:54:32;100376.97;;;8.94;100.00
65997;BME280;52765;52.258;21.052;2024-03-02T16:58:33;100380.69;;;8.93;100.00
65997;BME280;52765;52.258;21.052;2024-03-02T17:02:34;100383.50;;;8.91;100.00
65997;BME280;52765;52.258;21.052;2024-03-02T17:06:35;100389.88;;;8.90;100.00
65997;BME280;52765;52.258;21.052;2024-03-02T17:10:36;100385.19;;;8.92;100.00
65997;BME280;52765;52.258;21.052;2024-03-02T17:14:38;100378.84;;;8.93;100.00
65997;BME280;52765;52.258;21.052;2024-03-02T17:18:39;100381.94;;;8.88;100.00
65997;BME280;52765;52.258;21.052;2024-03-02T17:22:40;100381.13;;;8.88;100.00
65997;BME280;52765;52.258;21.052;2024-03-02T17:26:42;100375.59;;;8.89;100.00
65997;BME280;52765;52.258;21.052;2024-03-02T17:30:43;100373.06;;;8.88;100.00
65997;BME280;52765;52.258;21.052;2024-03-02T17:34:45;100377.72;;;8.86;100.00
65997;BME280;52765;52.258;21.052;2024-03-02T17:38:47;100382.38;;;8.84;100.00
65997;BME280;52765;52.258;21.052;2024-03-02T17:42:49;100376.72;;;8.87;100.00
65997;BME280;52765;52.258;21.052;2024-03-02T17:46:52;100379.97;;;8.91;100.00
65997;BME280;52765;52.258;21.052;2024-03-02T17:50:54;100378.72;;;8.85;100.00
65997;BME280;52765;52.258;21.052;2024-03-02T17:54:56;100378.56;;;8.86;100.00
65997;BME280;52765;52.258;21.052;2024-03-02T17:58:58;100380.09;;;8.89;100.00
65997;BME280;52765;52.258;21.052;2024-03-02T18:02:59;100379.13;;;8.90;100.00
65997;BME280;52765;52.258;21.052;2024-03-02T18:07:01;100371.91;;;8.81;100.00
65997;BME280;52765;52.258;21.052;2024-03-02T18:11:04;100382.66;;;8.81;100.00
65997;BME280;52765;52.258;21.052;2024-03-02T18:15:12;100379.69;;;8.84;100.00
65997;BME280;52765;52.258;21.052;2024-03-02T18:19:14;100386.63;;;8.86;100.00
65997;BME280;52765;52.258;21.052;2024-03-02T18:23:16;100380.56;;;8.84;100.00
65997;BME280;52765;52.258;21.052;2024-03-02T18:27:16;100392.84;;;8.87;100.00
65997;BME280;52765;52.258;21.052;2024-03-02T18:31:22;100383.50;;;8.91;100.00
65997;BME280;52765;52.258;21.052;2024-03-02T18:35:23;100386.50;;;8.88;100.00
65997;BME280;52765;52.258;21.052;2024-03-02T18:39:24;100388.63;;;8.84;100.00
65997;BME280;52765;52.258;21.052;2024-03-02T18:43:25;100390.44;;;8.84;100.00
65997;BME280;52765;52.258;21.052;2024-03-02T18:47:26;100384.94;;;8.76;100.00
65997;BME280;52765;52.258;21.052;2024-03-02T18:51:28;100392.31;;;8.74;100.00
65997;BME280;52765;52.258;21.052;2024-03-02T18:55:28;100383.13;;;8.66;100.00
65997;BME280;52765;52.258;21.052;2024-03-02T18:59:30;100393.19;;;8.64;100.00
65997;BME280;52765;52.258;21.052;2024-03-02T19:03:32;100379.03;;;8.62;100.00
65997;BME280;52765;52.258;21.052;2024-03-02T19:07:33;100383.69;;;8.60;100.00
65997;BME280;52765;52.258;21.052;2024-03-02T19:11:34;100383.56;;;8.62;100.00
65997;BME280;52765;52.258;21.052;2024-03-02T19:15:35;100386.38;;;8.60;100.00
65997;BME280;52765;52.258;21.052;2024-03-02T19:19:38;100390.31;;;8.66;100.00
65997;BME280;52765;52.258;21.052;2024-03-02T19:23:42;100389.19;;;8.68;100.00
65997;BME280;52765;52.258;21.052;2024-03-02T19:27:43;100383.97;;;8.67;100.00
65997;BME280;52765;52.258;21.052;2024-03-02T19:31:44;100391.75;;;8.70;100.00
65997;BME280;52765;52.258;21.052;2024-03-02T19:35:46;100384.41;;;8.62;100.00
65997;BME280;52765;52.258;21.052;2024-03-02T19:39:47;100389.75;;;8.62;100.00
65997;BME280;52765;52.258;21.052;2024-03-02T19:43:48;100380.47;;;8.57;100.00
65997;BME280;52765;52.258;21.052;2024-03-02T19:47:49;100381.56;;;8.54;100.00
65997;BME280;52765;52.258;21.052;2024-03-02T19:51:50;100383.00;;;8.48;100.00
65997;BME280;52765;52.258;21.052;2024-03-02T19:55:51;100377.47;;;8.40;100.00
65997;BME280;52765;52.258;21.052;2024-03-02T19:59:52;100386.13;;;8.44;100.00
65997;BME280;52765;52.258;21.052;2024-03-02T20:03:53;100373.97;;;8.49;100.00
65997;BME280;52765;52.258;21.052;2024-03-02T20:07:53;100369.44;;;8.50;100.00
65997;BME280;52765;52.258;21.052;2024-03-02T20:11:54;100379.91;;;8.53;100.00
65997;BME280;52765;52.258;21.052;2024-03-02T20:15:55;100382.88;;;8.50;100.00
65997;BME280;52765;52.258;21.052;2024-03-02T20:19:57;100383.44;;;8.44;100.00
65997;BME280;52765;52.258;21.052;2024-03-02T20:23:58;100382.84;;;8.40;100.00
65997;BME280;52765;52.258;21.052;2024-03-02T20:27:59;100374.38;;;8.35;100.00
65997;BME280;52765;52.258;21.052;2024-03-02T20:32:01;100387.66;;;8.37;100.00
65997;BME280;52765;52.258;21.052;2024-03-02T20:36:01;100377.47;;;8.40;100.00
65997;BME280;52765;52.258;21.052;2024-03-02T20:40:04;100375.63;;;8.41;100.00
65997;BME280;52765;52.258;21.052;2024-03-02T20:44:05;100379.59;;;8.37;100.00
65997;BME280;52765;52.258;21.052;2024-03-02T20:48:05;100387.50;;;8.38;100.00
65997;BME280;52765;52.258;21.052;2024-03-02T20:52:09;100370.56;;;8.38;100.00
65997;BME280;52765;52.258;21.052;2024-03-02T20:56:10;100366.88;;;8.39;100.00
65997;BME280;52765;52.258;21.052;2024-03-02T21:00:11;100375.38;;;8.44;100.00
65997;BME280;52765;52.258;21.052;2024-03-02T21:04:14;100365.75;;;8.41;100.00